This is the latest recevied weather packets stored in our database for station/object GBTWP-2. If no packets are shown the sender has not sent any weather packets the latest 1 day(s).
| Time | Temp. | Humidity | Pressure | Rain* | Wind** | Luminosity | Snow |
|---|---|---|---|---|---|---|---|
| 1778007902 | 12.22° C | 65% | 1009.8 hPa | 0 mm | 0 m/s | 84 W/m² | - |
| 1778007601 | 12.22° C | 68% | 1009.8 hPa | 0 mm | 0.89 m/s, 258° | 70 W/m² | - |
| 1778007302 | 12.22° C | 66% | 1009.8 hPa | 0 mm | 0.89 m/s, 219° | 66 W/m² | - |
| 1778006401 | 12.78° C | 65% | 1010 hPa | 0 mm | 0.45 m/s, 309° | 72 W/m² | - |
| 1778005802 | 12.78° C | 65% | 1009.8 hPa | 0 mm | 1.34 m/s, 214° | 93 W/m² | - |
| 1778005501 | 12.78° C | 66% | 1009.6 hPa | 0 mm | 0.45 m/s, 275° | 158 W/m² | - |
| 1778004901 | 12.22° C | 70% | 1009.6 hPa | 0 mm | 0.89 m/s, 163° | 153 W/m² | - |
| 1778004002 | 11.67° C | 71% | 1009.4 hPa | 0 mm | 0.45 m/s, 324° | 108 W/m² | - |
| 1778003701 | 12.22° C | 69% | 1009.5 hPa | 0 mm | 1.34 m/s, 231° | 72 W/m² | - |
| 1778003402 | 12.22° C | 70% | 1009.5 hPa | 0 mm | 0 m/s | 71 W/m² | - |
| 1778002802 | 12.78° C | 68% | 1009.3 hPa | 0 mm | 1.34 m/s, 231° | 131 W/m² | - |
| 1778001601 | 12.22° C | 72% | 1009.4 hPa | 0 mm | 0.45 m/s, 302° | 175 W/m² | - |
| 1778001002 | 11.67° C | 74% | 1009.3 hPa | 0 mm | 0.89 m/s, 203° | 121 W/m² | - |
| 1778000402 | 11.11° C | 74% | 1009.4 hPa | 0 mm | 1.34 m/s, 176° | 131 W/m² | - |
| 1778000102 | 11.11° C | 76% | 1009.4 hPa | 0 mm | 0.89 m/s, 241° | 128 W/m² | - |
| 1777999501 | 10.56° C | 76% | 1009.5 hPa | 0 mm | 1.34 m/s, 221° | 159 W/m² | - |
| 1777999202 | 10.56° C | 78% | 1009.5 hPa | 0 mm | 0.89 m/s, 223° | 109 W/m² | - |
| 1777998001 | 10° C | 77% | 1009.7 hPa | 0 mm | 0 m/s | 83 W/m² | - |
| 1777997702 | 10° C | 77% | 1009.7 hPa | 0 mm | 0.89 m/s, 234° | 85 W/m² | - |
| 1777997402 | 10° C | 78% | 1009.5 hPa | 0 mm | 0.89 m/s, 86° | 127 W/m² | - |
| 1777996802 | 10° C | 80% | 1009.5 hPa | 0 mm | 0.45 m/s, 168° | 119 W/m² | - |
| 1777996202 | 9.44° C | 81% | 1009.5 hPa | 0 mm | 0 m/s | 95 W/m² | - |
| 1777995902 | 9.44° C | 81% | 1009.5 hPa | 0 mm | 0 m/s | 107 W/m² | - |
| 1777994702 | 8.89° C | 82% | 1009.5 hPa | 0 mm | 0.89 m/s, 63° | 41 W/m² | - |
| 1777994402 | 8.89° C | 80% | 1009.6 hPa | 0 mm | 0.89 m/s, 241° | 44 W/m² | - |
* Rain latest hour (hover to see other rain measurements)
** Current wind speed in m/s (hover to see current wind gust speed)